createdAt,value
2024-03-31T00:00:17.888Z,11.28
2024-03-31T00:05:19.792Z,11.19
2024-03-31T00:10:18.729Z,11.09
2024-03-31T00:15:20.649Z,10.80
2024-03-31T00:20:19.624Z,10.58
2024-03-31T00:25:20.558Z,10.63
2024-03-31T00:30:22.478Z,10.63
2024-03-31T00:35:22.355Z,10.47
2024-03-31T00:40:22.304Z,10.53
2024-03-31T00:45:21.215Z,10.43
2024-03-31T00:50:22.467Z,10.36
2024-03-31T00:55:24.429Z,10.32
2024-03-31T01:00:23.443Z,10.24
2024-03-31T01:05:24.344Z,10.24
2024-03-31T01:10:27.282Z,10.25
2024-03-31T01:15:26.191Z,10.19
2024-03-31T01:20:28.192Z,10.25
2024-03-31T01:25:27.140Z,10.44
2024-03-31T01:30:28.010Z,10.46
2024-03-31T01:35:30.966Z,10.43
2024-03-31T01:40:30.899Z,10.53
2024-03-31T01:45:30.822Z,10.63
2024-03-31T01:50:30.733Z,10.63
2024-03-31T01:55:29.820Z,10.37
2024-03-31T02:00:31.714Z,10.24
2024-03-31T02:05:32.584Z,10.22
2024-03-31T02:10:32.509Z,10.14
2024-03-31T02:15:32.540Z,9.99
2024-03-31T02:20:33.481Z,9.81
2024-03-31T02:25:34.394Z,9.88
2024-03-31T02:30:33.385Z,10.33
2024-03-31T02:35:35.264Z,10.17
2024-03-31T02:40:35.149Z,10.04
2024-03-31T02:45:35.137Z,10.36
2024-03-31T02:50:35.027Z,10.36
2024-03-31T02:55:33.929Z,10.44
2024-03-31T03:00:34.889Z,10.62
2024-03-31T03:05:36.741Z,10.80
2024-03-31T03:10:35.666Z,11.34
2024-03-31T03:15:37.796Z,11.32
2024-03-31T03:20:38.696Z,11.27
2024-03-31T03:25:39.575Z,11.10
2024-03-31T03:30:39.511Z,11.07
2024-03-31T03:35:38.402Z,11.21
2024-03-31T03:40:39.364Z,11.24
2024-03-31T03:45:41.355Z,11.31
2024-03-31T03:50:40.239Z,11.34
2024-03-31T03:55:41.149Z,11.27
2024-03-31T04:00:42.060Z,11.50
2024-03-31T04:05:42.970Z,11.36
2024-03-31T04:10:43.948Z,11.62
2024-03-31T04:15:46.865Z,11.67
2024-03-31T04:20:46.748Z,11.67
2024-03-31T04:25:45.639Z,11.68
2024-03-31T04:30:47.602Z,11.71
2024-03-31T04:35:47.459Z,11.50
2024-03-31T04:40:46.410Z,11.59
2024-03-31T04:45:47.313Z,11.77
2024-03-31T04:50:50.202Z,11.56
2024-03-31T04:55:50.083Z,10.60
2024-03-31T05:00:50.032Z,10.26
2024-03-31T05:05:49.855Z,10.37
2024-03-31T05:10:48.714Z,10.60
2024-03-31T05:15:49.681Z,10.68
2024-03-31T05:20:51.601Z,10.78
2024-03-31T05:25:50.485Z,11.13
2024-03-31T05:30:51.469Z,11.83
2024-03-31T05:35:52.405Z,11.20
2024-03-31T05:40:53.302Z,10.83
2024-03-31T05:45:54.498Z,10.86
2024-03-31T05:50:55.388Z,11.89
2024-03-31T05:55:56.318Z,13.80
2024-03-31T06:00:57.217Z,14.52
2024-03-31T06:06:00.189Z,14.83
2024-03-31T06:11:00.135Z,14.86
2024-03-31T06:16:00.396Z,14.98
2024-03-31T06:21:00.345Z,15.05
2024-03-31T06:26:01.300Z,13.81
2024-03-31T06:31:01.282Z,13.87
2024-03-31T06:36:01.118Z,14.31
2024-03-31T06:40:59.996Z,14.71
2024-03-31T06:46:00.896Z,14.72
2024-03-31T06:51:02.799Z,13.91
2024-03-31T06:56:01.693Z,14.09
2024-03-31T07:01:03.602Z,14.25
2024-03-31T07:06:02.504Z,14.29
2024-03-31T07:11:04.433Z,14.57
2024-03-31T07:16:03.333Z,14.65
2024-03-31T07:21:04.376Z,14.56
2024-03-31T07:26:05.318Z,14.84
2024-03-31T07:31:07.344Z,13.63
2024-03-31T07:36:06.420Z,13.51
2024-03-31T07:41:07.407Z,13.98
2024-03-31T07:46:10.271Z,14.35
2024-03-31T07:51:09.277Z,14.54
2024-03-31T07:56:10.298Z,14.90
2024-03-31T08:01:11.196Z,15.17
2024-03-31T08:06:12.302Z,15.05
2024-03-31T08:11:14.898Z,15.31
2024-03-31T08:16:14.086Z,16.20
2024-03-31T08:21:15.073Z,16.93
2024-03-31T08:26:17.659Z,17.64
2024-03-31T08:31:18.709Z,18.33
2024-03-31T08:36:17.858Z,17.91
2024-03-31T08:41:20.769Z,17.70
2024-03-31T08:46:19.742Z,16.88
2024-03-31T08:51:20.704Z,17.10
2024-03-31T08:56:22.720Z,17.71
2024-03-31T09:01:22.625Z,18.64
2024-03-31T09:06:21.562Z,18.04
2024-03-31T09:11:22.462Z,18.43
2024-03-31T09:16:24.397Z,19.48
2024-03-31T09:21:23.313Z,19.68
2024-03-31T09:26:29.318Z,19.40
2024-03-31T09:31:24.259Z,19.25
2024-03-31T09:36:25.236Z,20.24
2024-03-31T09:41:28.215Z,21.57
2024-03-31T09:46:27.174Z,21.24
2024-03-31T09:51:29.108Z,20.28
2024-03-31T09:56:29.158Z,21.16
2024-03-31T10:01:28.053Z,20.89
2024-03-31T10:06:29.028Z,20.66
2024-03-31T10:11:30.910Z,19.79
2024-03-31T10:16:29.915Z,19.66
2024-03-31T10:21:30.796Z,19.50
2024-03-31T10:26:31.829Z,19.01
2024-03-31T10:31:32.794Z,19.40
2024-03-31T10:36:33.670Z,19.61
2024-03-31T10:41:36.509Z,19.69
2024-03-31T10:46:34.257Z,19.55
2024-03-31T10:51:35.282Z,19.29
2024-03-31T10:56:42.847Z,19.48
2024-03-31T11:01:36.058Z,18.74
2024-03-31T11:06:37.104Z,18.91
2024-03-31T11:11:38.069Z,18.59
2024-03-31T11:16:38.953Z,18.49
2024-03-31T11:21:39.902Z,18.92
2024-03-31T11:26:40.908Z,18.72
2024-03-31T11:31:42.741Z,18.43
2024-03-31T11:36:41.722Z,18.59
2024-03-31T11:41:44.574Z,18.13
2024-03-31T11:46:43.490Z,17.74
2024-03-31T11:51:45.433Z,17.47
2024-03-31T11:56:47.347Z,17.29
2024-03-31T12:01:44.352Z,17.36
2024-03-31T12:06:45.382Z,17.23
2024-03-31T12:11:46.349Z,16.04
2024-03-31T12:16:48.264Z,16.31
2024-03-31T12:21:47.224Z,16.93
2024-03-31T12:26:48.164Z,17.23
2024-03-31T12:31:49.128Z,17.14
2024-03-31T12:36:50.982Z,17.28
2024-03-31T12:41:49.994Z,17.23
2024-03-31T12:46:50.974Z,18.00
2024-03-31T12:51:52.857Z,18.28
2024-03-31T12:56:51.862Z,18.07
2024-03-31T13:01:53.787Z,18.54
2024-03-31T13:06:52.745Z,18.43
2024-03-31T13:11:53.761Z,18.25
2024-03-31T13:16:55.691Z,18.40
2024-03-31T13:21:55.713Z,18.43
2024-03-31T13:26:54.696Z,18.87
2024-03-31T13:31:55.692Z,18.52
2024-03-31T13:36:56.673Z,18.77
2024-03-31T13:41:57.577Z,19.06
2024-03-31T13:46:58.476Z,19.47
2024-03-31T13:51:59.455Z,19.36
2024-03-31T13:57:01.386Z,19.31
2024-03-31T14:02:01.388Z,18.97
2024-03-31T14:07:00.372Z,19.17
2024-03-31T14:12:01.350Z,19.05
2024-03-31T14:17:03.258Z,19.21
2024-03-31T14:22:02.675Z,19.54
2024-03-31T14:27:03.544Z,19.32
2024-03-31T14:32:04.630Z,19.33
2024-03-31T14:37:06.524Z,19.70
2024-03-31T14:42:05.584Z,19.53
2024-03-31T14:47:06.578Z,19.25
2024-03-31T14:52:07.464Z,19.11
2024-03-31T14:57:08.466Z,19.13
2024-03-31T15:02:09.373Z,19.08
2024-03-31T15:07:10.362Z,19.13
2024-03-31T15:12:11.235Z,18.99
2024-03-31T15:17:12.198Z,19.14
2024-03-31T15:22:13.257Z,19.21
2024-03-31T15:27:14.240Z,19.11
2024-03-31T15:32:15.179Z,19.13
2024-03-31T15:37:16.127Z,18.90
2024-03-31T15:42:17.071Z,18.83
2024-03-31T15:47:18.100Z,18.42
2024-03-31T15:52:19.187Z,18.22
2024-03-31T15:57:21.336Z,18.04
2024-03-31T16:02:23.171Z,17.97
2024-03-31T16:07:20.115Z,17.92
2024-03-31T16:12:21.248Z,17.81
2024-03-31T16:17:22.234Z,17.53
2024-03-31T16:22:23.129Z,17.63
2024-03-31T16:27:25.099Z,17.57
2024-03-31T16:32:24.075Z,17.59
2024-03-31T16:37:26.993Z,17.57
2024-03-31T16:42:27.059Z,17.63
2024-03-31T16:47:26.085Z,17.76
2024-03-31T16:52:27.150Z,17.91
2024-03-31T16:57:28.050Z,17.73
2024-03-31T17:02:29.056Z,17.79
2024-03-31T17:07:29.993Z,17.64
2024-03-31T17:12:32.852Z,17.88
2024-03-31T17:17:33.014Z,18.15
2024-03-31T17:22:32.069Z,18.61
2024-03-31T17:27:33.076Z,18.61
2024-03-31T17:32:34.095Z,18.52
2024-03-31T17:37:35.042Z,18.52
2024-03-31T17:42:37.044Z,18.15
2024-03-31T17:47:36.087Z,18.15
2024-03-31T17:52:36.051Z,18.09
2024-03-31T17:57:36.141Z,18.29
2024-03-31T18:02:37.111Z,18.28
2024-03-31T18:07:38.346Z,18.03
2024-03-31T18:12:39.347Z,17.87
2024-03-31T18:17:40.354Z,18.02
2024-03-31T18:22:41.370Z,18.43
2024-03-31T18:27:42.306Z,17.95
2024-03-31T18:32:43.405Z,17.79
2024-03-31T18:37:44.461Z,17.57
2024-03-31T18:42:45.550Z,17.43
2024-03-31T18:47:47.615Z,17.53
2024-03-31T18:52:46.703Z,17.38
2024-03-31T18:57:48.052Z,17.10
2024-03-31T19:02:47.744Z,17.06
2024-03-31T19:07:46.986Z,17.07
2024-03-31T19:12:48.874Z,17.20
2024-03-31T19:17:48.802Z,17.03
2024-03-31T19:22:48.694Z,16.85
2024-03-31T19:27:47.908Z,16.71
2024-03-31T19:32:49.365Z,16.93
2024-03-31T19:37:55.612Z,16.75
2024-03-31T19:42:51.533Z,17.10
2024-03-31T19:47:51.063Z,16.80
2024-03-31T19:52:50.626Z,16.35
2024-03-31T19:57:50.259Z,16.59
2024-03-31T20:02:49.283Z,17.13
2024-03-31T20:07:50.464Z,17.41
2024-03-31T20:12:50.972Z,17.36
2024-03-31T20:17:51.978Z,17.30
2024-03-31T20:22:53.346Z,17.46
2024-03-31T20:27:55.276Z,17.04
2024-03-31T20:32:54.525Z,17.03
2024-03-31T20:37:55.472Z,16.81
2024-03-31T20:42:57.514Z,17.06
2024-03-31T20:47:56.386Z,17.04
2024-03-31T20:52:57.368Z,16.80
2024-03-31T20:57:59.279Z,16.80
2024-03-31T21:02:58.355Z,16.77
2024-03-31T21:07:59.347Z,16.70
2024-03-31T21:13:00.331Z,16.45
2024-03-31T21:18:03.377Z,16.50
2024-03-31T21:23:02.351Z,16.45
2024-03-31T21:28:04.009Z,16.37
2024-03-31T21:33:04.752Z,16.40
2024-03-31T21:38:07.777Z,16.49
2024-03-31T21:43:05.129Z,16.40
2024-03-31T21:48:06.107Z,16.58
2024-03-31T21:53:07.994Z,16.53
2024-03-31T21:58:06.901Z,16.27
2024-03-31T22:03:08.772Z,15.97
2024-03-31T22:08:07.698Z,15.72
2024-03-31T22:13:08.760Z,15.66
2024-03-31T22:18:09.633Z,15.38
2024-03-31T22:23:10.518Z,15.21
2024-03-31T22:28:11.551Z,14.88
2024-03-31T22:33:12.441Z,15.13
2024-03-31T22:38:13.852Z,15.20
2024-03-31T22:43:14.820Z,15.67
2024-03-31T22:48:15.803Z,15.97
2024-03-31T22:53:16.881Z,16.58
2024-03-31T22:58:18.961Z,16.60
2024-03-31T23:03:17.880Z,16.75
2024-03-31T23:08:18.892Z,16.62
2024-03-31T23:13:19.922Z,16.35
2024-03-31T23:18:21.891Z,16.44
2024-03-31T23:23:24.740Z,16.18
2024-03-31T23:28:21.730Z,16.12
2024-03-31T23:33:22.865Z,15.86
2024-03-31T23:38:23.726Z,15.61
2024-03-31T23:43:24.760Z,15.59
2024-03-31T23:48:25.621Z,15.60
2024-03-31T23:53:26.607Z,15.57
2024-03-31T23:58:28.576Z,15.51
